Time;durP1;ratioP1;P1;durP2;ratioP2;P2;SDS_P1;SDS_P2;PMS_P1;PMS_P2;Temp;Humidity;BMP_temperature;BMP_pressure;BME280_temperature;BME280_humidity;BME280_pressure;Samples;Min_cycle;Max_cycle;Signal;HPM_P1;HPM_P2
2023/11/04 00:00:13;;;;;;;4.85;3.60;;;;;;;6.00;100.00;98055.75;5996493;23;20027;-69
2023/11/04 00:02:40;;;;;;;3.83;3.63;;;;;;;6.08;100.00;98070.81;6001040;23;20019;-69
2023/11/04 00:05:07;;;;;;;5.38;5.18;;;;;;;5.97;100.00;98051.63;6017019;23;20435;-69
2023/11/04 00:07:34;;;;;;;3.90;3.70;;;;;;;6.06;100.00;98051.88;6014644;23;20023;-68
2023/11/04 00:10:00;;;;;;;4.07;3.88;;;;;;;6.11;100.00;98060.13;5985872;23;20050;-68
2023/11/04 00:12:27;;;;;;;4.70;4.40;;;;;;;5.95;100.00;98030.09;6017064;23;20635;-69
2023/11/04 00:14:54;;;;;;;4.30;4.13;;;;;;;5.96;100.00;98012.69;5991740;23;20023;-68
2023/11/04 00:17:21;;;;;;;3.88;3.70;;;;;;;6.21;100.00;98035.06;6013368;23;20039;-69
2023/11/04 00:19:47;;;;;;;3.80;3.60;;;;;;;6.39;100.00;98030.19;5993448;23;20343;-70
2023/11/04 00:22:14;;;;;;;3.67;3.47;;;;;;;6.19;100.00;97971.84;6014050;23;20370;-70
2023/11/04 00:24:41;;;;;;;4.90;3.70;;;;;;;6.08;100.00;97943.22;6022647;23;20034;-69
2023/11/04 00:27:07;;;;;;;4.95;4.75;;;;;;;6.41;100.00;97972.78;5991099;23;20030;-71
2023/11/04 00:29:36;;;;;;;3.90;3.70;;;;;;;6.50;100.00;97972.88;5990283;23;20031;-69
2023/11/04 00:32:06;;;;;;;3.40;3.30;;;;;;;6.62;100.00;97931.16;6016236;23;20042;-69
2023/11/04 00:34:33;;;;;;;3.70;3.50;;;;;;;7.09;100.00;97968.19;5988695;23;20035;-69
2023/11/04 00:36:59;;;;;;;4.70;4.50;;;;;;;6.71;100.00;97881.72;6012959;23;20015;-69
2023/11/04 00:39:26;;;;;;;3.60;3.50;;;;;;;7.04;100.00;97908.59;5991350;23;20042;-70
2023/11/04 00:41:52;;;;;;;3.70;3.53;;;;;;;7.10;100.00;97902.06;6002938;23;20033;-69
2023/11/04 00:44:19;;;;;;;3.60;3.42;;;;;;;6.87;100.00;97865.66;5991838;23;20463;-69
2023/11/04 00:46:45;;;;;;;3.80;3.60;;;;;;;7.24;100.00;97896.50;6018273;23;20461;-68
2023/11/04 00:49:12;;;;;;;3.70;3.50;;;;;;;7.31;100.00;97895.03;5988089;23;20716;-70
2023/11/04 00:51:38;;;;;;;3.40;3.30;;;;;;;7.31;100.00;97883.78;6016731;23;20051;-69
2023/11/04 00:54:06;;;;;;;3.40;3.30;;;;;;;7.23;100.00;97854.91;5995060;23;20127;-70
2023/11/04 00:56:33;;;;;;;3.55;3.42;;;;;;;7.38;100.00;97877.91;6018381;23;20831;-69
2023/11/04 00:58:59;;;;;;;4.55;4.35;;;;;;;7.32;100.00;97885.44;6015214;23;20094;-70
2023/11/04 01:01:26;;;;;;;6.18;4.15;;;;;;;7.40;100.00;97875.19;6014850;23;20031;-70
2023/11/04 01:03:53;;;;;;;3.40;3.30;;;;;;;7.06;100.00;97819.81;5987102;23;20583;-69
2023/11/04 01:06:19;;;;;;;3.70;3.60;;;;;;;7.34;100.00;97857.44;6023276;23;20106;-69
2023/11/04 01:08:46;;;;;;;3.60;3.50;;;;;;;7.34;100.00;97849.63;6021160;23;20049;-69
2023/11/04 01:11:13;;;;;;;3.50;3.40;;;;;;;7.32;100.00;97847.13;6014821;23;20278;-69
2023/11/04 01:13:39;;;;;;;3.40;3.30;;;;;;;6.78;100.00;97769.97;5971104;23;20023;-69
2023/11/04 01:16:06;;;;;;;3.50;3.40;;;;;;;6.66;100.00;97752.78;6014815;23;20038;-69
2023/11/04 01:18:33;;;;;;;3.78;3.58;;;;;;;7.18;100.00;97843.06;5988943;23;20102;-69
2023/11/04 01:21:03;;;;;;;4.47;4.28;;;;;;;7.05;100.00;97825.97;6019121;23;20779;-70
2023/11/04 01:23:36;;;;;;;3.72;3.53;;;;;;;7.08;100.00;97855.22;5996532;23;20462;-69
2023/11/04 01:26:03;;;;;;;3.50;3.40;;;;;;;6.97;100.00;97842.25;6021210;23;20037;-69
2023/11/04 01:28:30;;;;;;;3.60;3.50;;;;;;;6.78;100.00;97833.34;6012581;23;20014;-69
2023/11/04 01:30:57;;;;;;;4.38;4.18;;;;;;;6.81;100.00;97862.72;6022368;23;20027;-69
2023/11/04 01:33:26;;;;;;;3.50;3.40;;;;;;;6.62;100.00;97856.41;5991424;23;21046;-71
2023/11/04 01:35:54;;;;;;;3.80;3.60;;;;;;;6.75;100.00;97890.94;5999570;23;20406;-70
2023/11/04 01:38:21;;;;;;;4.25;4.03;;;;;;;6.77;100.00;97901.25;5994102;23;20019;-69
2023/11/04 01:40:49;;;;;;;3.40;3.30;;;;;;;6.78;100.00;97906.34;6016200;23;20023;-69
2023/11/04 01:43:29;;;;;;;3.47;3.38;;;;;;;6.84;100.00;97912.00;5968478;23;20038;-70
2023/11/04 01:46:17;;;;;;;3.50;3.40;;;;;;;6.86;100.00;97904.91;6015475;23;20036;-70
2023/11/04 01:48:48;;;;;;;3.63;3.47;;;;;;;6.83;100.00;97900.75;5971130;23;20015;-69
2023/11/04 01:51:16;;;;;;;3.60;3.50;;;;;;;6.28;100.00;97806.25;6003479;23;20098;-69
2023/11/04 01:53:47;;;;;;;3.25;3.15;;;;;;;6.84;100.00;97893.78;6017216;23;20065;-70
2023/11/04 01:56:19;;;;;;;3.50;3.40;;;;;;;6.89;100.00;97917.66;6016971;23;20497;-69
2023/11/04 01:58:51;;;;;;;3.33;3.22;;;;;;;6.95;100.00;97884.09;5987241;23;20023;-69
2023/11/04 02:01:19;;;;;;;3.50;3.40;;;;;;;7.01;100.00;97887.16;6016540;23;20047;-70
2023/11/04 02:03:46;;;;;;;3.20;3.10;;;;;;;6.94;100.00;97868.59;6010422;23;20015;-69
2023/11/04 02:06:13;;;;;;;3.40;3.30;;;;;;;6.94;100.00;97868.59;6014637;23;20050;-69
2023/11/04 02:08:40;;;;;;;3.35;3.25;;;;;;;6.90;100.00;97885.44;6023476;23;21214;-70
2023/11/04 02:11:06;;;;;;;4.43;4.22;;;;;;;6.72;100.00;97844.28;6020872;23;20901;-69
2023/11/04 02:13:35;;;;;;;3.67;3.47;;;;;;;6.72;100.00;97867.75;6025535;23;20138;-70
2023/11/04 02:16:01;;;;;;;3.60;3.50;;;;;;;6.91;100.00;97877.47;6017594;23;20023;-70
2023/11/04 02:18:29;;;;;;;3.40;3.30;;;;;;;6.99;100.00;97895.91;6016112;23;20036;-69
2023/11/04 02:20:57;;;;;;;4.38;4.18;;;;;;;6.99;100.00;97877.66;6021994;23;20034;-69
2023/11/04 02:23:24;;;;;;;3.53;3.42;;;;;;;7.04;100.00;97874.69;5991791;23;20011;-68
2023/11/04 02:25:52;;;;;;;3.50;3.40;;;;;;;6.93;100.00;97844.28;6018295;23;20084;-69
2023/11/04 02:28:20;;;;;;;3.50;3.40;;;;;;;6.79;100.00;97816.78;5971488;23;20036;-69
2023/11/04 02:30:47;;;;;;;3.50;3.40;;;;;;;6.92;100.00;97834.81;6019933;23;20089;-68
2023/11/04 02:33:14;;;;;;;3.92;3.63;;;;;;;6.75;100.00;97811.91;5992096;23;20023;-68
2023/11/04 02:35:40;;;;;;;3.50;3.40;;;;;;;6.87;100.00;97838.75;6020503;23;20755;-69
2023/11/04 02:38:07;;;;;;;3.42;3.33;;;;;;;6.92;100.00;97845.25;6021694;23;20041;-69
2023/11/04 02:40:34;;;;;;;3.90;3.70;;;;;;;6.96;100.00;97841.44;6013930;23;20528;-69
2023/11/04 02:43:00;;;;;;;4.82;4.60;;;;;;;6.73;100.00;97798.19;6023109;23;20030;-69
2023/11/04 02:45:27;;;;;;;3.42;3.33;;;;;;;7.18;100.00;97855.28;6007968;23;20092;-69
2023/11/04 02:47:54;;;;;;;3.70;3.60;;;;;;;7.22;100.00;97848.88;5992017;23;20505;-69
2023/11/04 02:50:21;;;;;;;3.30;3.20;;;;;;;7.29;100.00;97846.56;5997798;23;20027;-68
2023/11/04 02:52:47;;;;;;;3.35;3.25;;;;;;;7.06;100.00;97794.56;5995365;23;20034;-69
2023/11/04 02:55:16;;;;;;;3.40;3.30;;;;;;;7.41;100.00;97837.69;6018939;23;20058;-70
2023/11/04 02:57:49;;;;;;;3.58;3.47;;;;;;;7.43;100.00;97830.56;5994249;23;20058;-69
2023/11/04 03:00:18;;;;;;;3.60;3.50;;;;;;;6.97;100.00;97749.22;6007201;23;20580;-70
2023/11/04 03:02:45;;;;;;;3.42;3.33;;;;;;;7.51;100.00;97825.50;6019447;23;20676;-69
2023/11/04 03:05:12;;;;;;;3.55;3.45;;;;;;;7.47;100.00;97805.84;5994767;23;20623;-69
2023/11/04 03:07:52;;;;;;;3.83;3.63;;;;;;;7.09;100.00;97738.72;6023416;23;20609;-69
2023/11/04 03:10:19;;;;;;;3.78;3.58;;;;;;;7.47;100.00;97795.41;6014574;23;20031;-69
2023/11/04 03:12:46;;;;;;;3.38;3.28;;;;;;;7.68;100.00;97812.81;6018853;23;20046;-71
2023/11/04 03:15:13;;;;;;;3.50;3.40;;;;;;;7.72;100.00;97808.97;6015674;23;20019;-68
2023/11/04 03:17:39;;;;;;;3.80;3.60;;;;;;;7.61;100.00;97785.56;5988465;23;20546;-71
2023/11/04 03:20:06;;;;;;;3.80;3.63;;;;;;;7.72;100.00;97804.56;6015045;23;20031;-69
2023/11/04 03:22:35;;;;;;;3.50;3.40;;;;;;;7.46;100.00;97753.81;5989110;23;20130;-69
2023/11/04 03:25:03;;;;;;;4.82;4.63;;;;;;;7.78;100.00;97798.00;6001657;23;20048;-69
2023/11/04 03:27:30;;;;;;;3.92;3.72;;;;;;;7.37;100.00;97737.97;6013691;23;20006;-69
2023/11/04 03:29:57;;;;;;;4.25;3.95;;;;;;;7.64;100.00;97786.13;6020956;23;20031;-68
2023/11/04 03:32:23;;;;;;;5.10;3.47;;;;;;;7.79;100.00;97815.28;5991146;23;20035;-68
2023/11/04 03:34:50;;;;;;;3.50;3.38;;;;;;;7.78;100.00;97814.47;6013899;23;20042;-68
2023/11/04 03:37:16;;;;;;;3.70;3.60;;;;;;;7.48;100.00;97765.75;6019202;23;20550;-69
2023/11/04 03:39:43;;;;;;;3.53;3.42;;;;;;;7.61;100.00;97780.34;6012117;23;20074;-68
2023/11/04 03:42:09;;;;;;;3.50;3.40;;;;;;;7.81;100.00;97823.00;6021664;23;20026;-69
2023/11/04 03:44:39;;;;;;;3.58;3.47;;;;;;;7.54;100.00;97795.72;5996882;23;20023;-69
2023/11/04 03:47:05;;;;;;;4.68;4.47;;;;;;;7.55;100.00;97787.75;6014736;23;20113;-71
2023/11/04 03:49:32;;;;;;;4.70;3.63;;;;;;;7.28;100.00;97764.06;5997406;23;20015;-69
2023/11/04 03:51:58;;;;;;;3.40;3.30;;;;;;;7.62;100.00;97801.09;6010561;23;20046;-69
2023/11/04 03:54:25;;;;;;;3.67;3.50;;;;;;;7.33;100.00;97749.63;5993083;23;20015;-71
2023/11/04 03:56:52;;;;;;;3.83;3.63;;;;;;;7.74;100.00;97822.72;6009053;23;20114;-69
2023/11/04 03:59:19;;;;;;;3.40;3.30;;;;;;;7.74;100.00;97822.72;5987696;23;20097;-70
2023/11/04 04:01:45;;;;;;;3.90;3.70;;;;;;;7.73;100.00;97821.03;6017114;23;20031;-69
2023/11/04 04:04:12;;;;;;;3.40;3.30;;;;;;;7.53;100.00;97814.94;5989283;23;20078;-69
2023/11/04 04:06:38;;;;;;;3.80;3.70;;;;;;;7.69;100.00;97836.13;6015876;23;20031;-70
2023/11/04 04:09:05;;;;;;;5.20;5.00;;;;;;;7.66;100.00;97833.81;6014649;23;20105;-68
2023/11/04 04:11:32;;;;;;;3.70;3.60;;;;;;;7.58;100.00;97823.22;6016723;23;20019;-69
2023/11/04 04:13:59;;;;;;;3.60;3.50;;;;;;;7.51;100.00;97822.88;5970817;23;20310;-69
2023/11/04 04:16:25;;;;;;;3.50;3.40;;;;;;;7.48;100.00;97833.59;6015963;23;20097;-69
2023/11/04 04:18:53;;;;;;;3.88;3.67;;;;;;;7.46;100.00;97845.13;6020512;23;20023;-68
2023/11/04 04:21:20;;;;;;;3.70;3.55;;;;;;;7.37;100.00;97829.28;5998936;23;20050;-69
2023/11/04 04:23:47;;;;;;;3.70;3.60;;;;;;;7.34;100.00;97820.91;5964311;23;20029;-69
2023/11/04 04:26:20;;;;;;;3.75;3.60;;;;;;;7.41;100.00;97834.25;6014674;23;20465;-69
2023/11/04 04:28:47;;;;;;;3.60;3.50;;;;;;;7.48;100.00;97849.25;5990567;23;20027;-70
2023/11/04 04:31:14;;;;;;;4.05;3.85;;;;;;;7.05;100.00;97787.69;6014450;23;20942;-69
2023/11/04 04:33:41;;;;;;;3.70;3.60;;;;;;;7.52;100.00;97861.09;5988721;23;20031;-69
2023/11/04 04:36:09;;;;;;;3.70;3.60;;;;;;;7.57;100.00;97858.06;6018743;23;20583;-70
2023/11/04 04:38:36;;;;;;;3.80;3.60;;;;;;;6.41;100.00;97647.16;5991222;23;20035;-69
2023/11/04 04:41:03;;;;;;;4.75;4.47;;;;;;;7.70;100.00;97861.31;5995537;23;20078;-69
2023/11/04 04:43:29;;;;;;;3.80;3.60;;;;;;;7.50;100.00;97795.16;5993386;23;20609;-69
2023/11/04 04:45:56;;;;;;;3.92;3.72;;;;;;;7.72;100.00;97820.22;6014492;23;20092;-70
2023/11/04 04:48:23;;;;;;;3.70;3.60;;;;;;;7.68;100.00;97797.16;5991284;23;20431;-69
2023/11/04 04:50:50;;;;;;;3.72;3.53;;;;;;;7.41;100.00;97755.97;6019091;23;20067;-69
2023/11/04 04:53:17;;;;;;;3.65;3.50;;;;;;;7.74;100.00;97804.44;5983212;23;20134;-69
2023/11/04 04:55:43;;;;;;;3.90;3.70;;;;;;;7.60;100.00;97795.19;6020659;23;20027;-69
2023/11/04 04:58:11;;;;;;;3.95;3.72;;;;;;;6.90;100.00;97666.47;6013515;23;20803;-69
2023/11/04 05:00:37;;;;;;;4.10;3.90;;;;;;;7.78;100.00;97790.97;5971495;23;20022;-69
2023/11/04 05:03:05;;;;;;;4.85;4.65;;;;;;;7.08;100.00;97679.69;6009407;23;20037;-69
2023/11/04 05:05:34;;;;;;;3.70;3.55;;;;;;;7.84;100.00;97792.22;6022426;23;20023;-70
2023/11/04 05:08:01;;;;;;;3.53;3.42;;;;;;;7.52;100.00;97735.84;6010757;23;20043;-69
2023/11/04 05:10:28;;;;;;;3.50;3.40;;;;;;;7.81;100.00;97784.66;5988994;23;20513;-70
2023/11/04 05:12:54;;;;;;;4.10;3.92;;;;;;;7.85;100.00;97786.03;6013319;23;20027;-69
2023/11/04 05:15:21;;;;;;;3.40;3.30;;;;;;;7.84;100.00;97778.31;5986532;23;20088;-69
2023/11/04 05:17:48;;;;;;;3.60;3.50;;;;;;;7.61;100.00;97738.59;5994685;23;20027;-69
2023/11/04 05:20:15;;;;;;;3.60;3.50;;;;;;;7.87;100.00;97773.66;5993462;23;20523;-68
2023/11/04 05:22:42;;;;;;;3.60;3.50;;;;;;;7.78;100.00;97753.59;6014624;23;20019;-69
2023/11/04 05:25:08;;;;;;;4.75;4.55;;;;;;;7.53;100.00;97710.56;6016092;23;20706;-69
2023/11/04 05:27:35;;;;;;;3.53;3.42;;;;;;;7.79;100.00;97748.22;6009871;23;20395;-69
2023/11/04 05:30:02;;;;;;;3.80;3.60;;;;;;;7.73;100.00;97743.56;6021184;23;20046;-70
2023/11/04 05:32:29;;;;;;;3.70;3.50;;;;;;;7.10;100.00;97642.09;6012208;23;20061;-69
2023/11/04 05:34:56;;;;;;;4.53;4.32;;;;;;;7.64;100.00;97749.59;5986902;23;20090;-69
2023/11/04 05:37:22;;;;;;;3.80;3.60;;;;;;;6.14;100.00;97516.56;6012697;23;20467;-69
2023/11/04 05:39:49;;;;;;;3.47;3.38;;;;;;;7.14;100.00;97679.97;5989900;23;20027;-69
2023/11/04 05:42:16;;;;;;;3.47;3.38;;;;;;;7.22;100.00;97704.56;6021003;23;20019;-69
2023/11/04 05:44:42;;;;;;;3.90;3.70;;;;;;;7.80;100.00;97798.69;5990925;23;20672;-68
2023/11/04 05:47:09;;;;;;;4.72;4.53;;;;;;;7.82;100.00;97778.50;6020451;23;20070;-68
2023/11/04 05:49:36;;;;;;;3.53;3.35;;;;;;;7.43;100.00;97701.88;5991670;23;20038;-68
2023/11/04 05:52:03;;;;;;;4.10;3.90;;;;;;;7.84;100.00;97757.44;5994851;23;20145;-69
2023/11/04 05:54:29;;;;;;;3.78;3.60;;;;;;;7.44;100.00;97706.97;6023780;23;20572;-69
2023/11/04 05:56:56;;;;;;;4.97;4.75;;;;;;;7.49;100.00;97710.00;6008528;23;20047;-69
2023/11/04 05:59:23;;;;;;;3.90;3.70;;;;;;;7.88;100.00;97758.84;5987876;23;20042;-71
2023/11/04 06:01:50;;;;;;;4.68;4.40;;;;;;;7.86;100.00;97758.13;6001084;23;20521;-69
2023/11/04 06:04:16;;;;;;;3.83;3.63;;;;;;;7.88;100.00;97748.41;5992355;23;20035;-68
2023/11/04 06:06:43;;;;;;;3.70;3.55;;;;;;;7.92;100.00;97753.22;6020625;23;20031;-69
2023/11/04 06:09:11;;;;;;;4.55;4.35;;;;;;;7.79;100.00;97723.91;5989750;23;20119;-68
2023/11/04 06:11:37;;;;;;;3.50;3.40;;;;;;;7.91;100.00;97738.50;6018081;23;20089;-69
2023/11/04 06:14:07;;;;;;;3.65;3.47;;;;;;;7.92;100.00;97721.06;5996087;23;20031;-69
2023/11/04 06:16:34;;;;;;;3.60;3.50;;;;;;;7.95;100.00;97718.97;6016171;23;20027;-71
2023/11/04 06:19:01;;;;;;;4.78;4.57;;;;;;;7.94;100.00;97713.91;5994992;23;20705;-69
2023/11/04 06:21:28;;;;;;;3.60;3.50;;;;;;;8.00;100.00;97713.38;6015168;23;20623;-69
2023/11/04 06:23:55;;;;;;;4.10;3.80;;;;;;;7.96;100.00;97699.75;5990339;23;20027;-69
2023/11/04 06:26:22;;;;;;;4.07;3.88;;;;;;;7.94;100.00;97693.03;6021957;23;20022;-69
2023/11/04 06:28:49;;;;;;;3.92;3.72;;;;;;;7.62;100.00;97654.09;5991724;23;20015;-69
2023/11/04 06:31:17;;;;;;;3.70;3.60;;;;;;;7.22;100.00;97588.03;6020732;23;20015;-69
2023/11/04 06:33:43;;;;;;;3.63;3.53;;;;;;;7.87;100.00;97697.13;5988114;23;20047;-69
2023/11/04 06:36:10;;;;;;;3.85;3.65;;;;;;;7.42;100.00;97635.00;6022312;23;20596;-69
2023/11/04 06:38:37;;;;;;;3.65;3.47;;;;;;;7.58;100.00;97662.22;5997245;23;20031;-69
2023/11/04 06:41:16;;;;;;;4.95;4.75;;;;;;;7.47;100.00;97662.34;6017436;23;20050;-69
2023/11/04 06:43:47;;;;;;;3.65;3.55;;;;;;;7.57;100.00;97704.09;6002138;23;20023;-70
2023/11/04 06:46:13;;;;;;;3.58;3.47;;;;;;;7.28;100.00;97670.16;6024001;23;20018;-71
2023/11/04 06:48:40;;;;;;;3.60;3.50;;;;;;;7.42;100.00;97706.28;6019093;23;20931;-70
2023/11/04 06:51:07;;;;;;;5.05;4.85;;;;;;;7.58;100.00;97757.97;6013105;23;20040;-70
2023/11/04 06:53:34;;;;;;;3.78;3.55;;;;;;;7.37;100.00;97701.44;6020398;23;20717;-71
2023/11/04 06:56:02;;;;;;;3.97;3.78;;;;;;;7.73;100.00;97751.38;5996062;23;20014;-71
2023/11/04 06:58:31;;;;;;;3.92;3.72;;;;;;;7.63;100.00;97721.00;5988063;23;20454;-70
2023/11/04 07:00:57;;;;;;;6.38;5.97;;;;;;;7.74;100.00;97713.91;5997543;23;20023;-71
2023/11/04 07:03:24;;;;;;;4.20;4.00;;;;;;;8.05;100.00;97734.66;6016635;23;20033;-70
2023/11/04 07:05:54;;;;;;;3.88;3.67;;;;;;;8.09;100.00;97704.69;6021616;23;20078;-70
2023/11/04 07:08:20;;;;;;;3.90;3.70;;;;;;;7.05;100.00;97520.91;6021550;23;20007;-70
2023/11/04 07:10:47;;;;;;;3.85;3.63;;;;;;;7.98;100.00;97652.63;6020213;23;20453;-70
2023/11/04 07:13:14;;;;;;;3.88;3.70;;;;;;;8.21;100.00;97692.31;5971050;23;20035;-71
2023/11/04 07:15:43;;;;;;;4.10;3.90;;;;;;;7.79;100.00;97588.16;5996619;23;20322;-70
2023/11/04 07:18:17;;;;;;;3.90;3.70;;;;;;;8.17;100.00;97621.22;5995069;23;20012;-73
2023/11/04 07:20:46;;;;;;;3.60;3.50;;;;;;;7.99;100.00;97592.41;6021488;23;20025;-73
2023/11/04 07:23:13;;;;;;;3.80;3.60;;;;;;;7.76;100.00;97551.91;6013885;23;20046;-74
2023/11/04 07:25:40;;;;;;;3.70;3.50;;;;;;;7.97;100.00;97567.41;6012357;23;20042;-74
2023/11/04 07:28:06;;;;;;;3.70;3.60;;;;;;;8.52;100.00;97639.88;5986887;23;20110;-71
2023/11/04 07:30:33;;;;;;;3.70;3.60;;;;;;;8.55;100.00;97634.38;6018378;23;20022;-71
2023/11/04 07:33:00;;;;;;;5.25;4.95;;;;;;;8.61;100.00;97618.13;5996579;23;20481;-71
2023/11/04 07:35:28;;;;;;;3.70;3.60;;;;;;;8.24;100.00;97556.19;5995099;23;20019;-70
2023/11/04 07:37:56;;;;;;;3.50;3.40;;;;;;;8.73;100.00;97624.00;5994614;23;20086;-70
2023/11/04 07:40:25;;;;;;;3.70;3.60;;;;;;;8.45;100.00;97550.78;6016902;23;20022;-71
2023/11/04 07:42:52;;;;;;;4.05;3.85;;;;;;;8.79;100.00;97594.66;5990001;23;20597;-70
2023/11/04 07:45:21;;;;;;;3.90;3.70;;;;;;;8.43;100.00;97523.97;5990008;23;21900;-70
2023/11/04 07:47:47;;;;;;;3.90;3.70;;;;;;;8.81;100.00;97584.88;5994140;23;20015;-70
2023/11/04 07:50:14;;;;;;;29.98;4.38;;;;;;;8.83;100.00;97585.53;6020188;23;20027;-70
2023/11/04 07:52:41;;;;;;;3.67;3.58;;;;;;;8.63;100.00;97566.50;6016323;23;20037;-72
2023/11/04 07:55:24;;;;;;;3.85;3.65;;;;;;;8.83;100.00;97626.56;6020046;23;20023;-70
2023/11/04 07:57:54;;;;;;;3.60;3.50;;;;;;;8.24;100.00;97537.06;5984515;23;20162;-69
2023/11/04 08:00:21;;;;;;;3.60;3.50;;;;;;;8.71;100.00;97603.22;6021002;23;20518;-71
2023/11/04 08:02:48;;;;;;;3.80;3.60;;;;;;;8.52;100.00;97579.75;5993233;23;20034;-73
2023/11/04 08:05:15;;;;;;;3.97;3.80;;;;;;;8.38;100.00;97600.16;5991285;23;20090;-73
2023/11/04 08:07:41;;;;;;;3.90;3.70;;;;;;;8.46;100.00;97630.00;5995764;23;20082;-72
2023/11/04 08:10:08;;;;;;;4.03;3.83;;;;;;;8.43;100.00;97646.78;6011084;23;20010;-72
2023/11/04 08:12:36;;;;;;;3.70;3.60;;;;;;;8.14;100.00;97616.31;6021289;23;20039;-74
2023/11/04 08:15:04;;;;;;;4.88;4.68;;;;;;;8.69;100.00;97695.84;6013008;23;20771;-73
2023/11/04 08:17:34;;;;;;;3.90;3.70;;;;;;;8.70;100.00;97676.56;6020264;23;20106;-74
2023/11/04 08:20:08;;;;;;;3.83;3.65;;;;;;;8.83;100.00;97692.75;6017678;23;20104;-74
2023/11/04 08:22:41;;;;;;;4.20;3.90;;;;;;;8.91;100.00;97681.59;6014086;23;20027;-73
2023/11/04 08:25:08;;;;;;;5.03;4.82;;;;;;;8.83;100.00;97652.72;6020169;23;20502;-74
2023/11/04 08:27:35;;;;;;;3.90;3.70;;;;;;;8.93;100.00;97674.41;5992516;23;20026;-72
2023/11/04 08:30:04;;;;;;;3.92;3.72;;;;;;;8.96;100.00;97659.25;6021165;23;20094;-75
2023/11/04 08:32:31;;;;;;;4.15;3.85;;;;;;;8.72;100.00;97620.56;6022969;23;20038;-74
2023/11/04 08:34:58;;;;;;;4.32;4.13;;;;;;;8.77;100.00;97615.69;5990620;23;20027;-75
2023/11/04 08:37:26;;;;;;;8.07;4.05;;;;;;;9.08;100.00;97656.44;6023289;23;20089;-74
2023/11/04 08:39:54;;;;;;;4.50;4.30;;;;;;;9.28;100.00;97657.16;6013426;23;20086;-74
2023/11/04 08:42:22;;;;;;;3.70;3.60;;;;;;;8.74;100.00;97534.97;5989854;23;20041;-74
2023/11/04 08:44:49;;;;;;;4.05;3.85;;;;;;;8.87;100.00;97511.06;6013993;23;20106;-75
2023/11/04 08:47:18;;;;;;;4.10;3.90;;;;;;;9.59;100.00;97592.19;6016972;23;20030;-74
2023/11/04 08:49:44;;;;;;;3.80;3.60;;;;;;;9.19;100.00;97502.69;6021344;23;20014;-73
2023/11/04 08:52:11;;;;;;;3.88;3.67;;;;;;;9.16;100.00;97479.47;5987280;23;20029;-73
2023/11/04 08:54:40;;;;;;;4.50;4.20;;;;;;;9.73;100.00;97534.06;6019354;23;20041;-73
2023/11/04 08:57:07;;;;;;;5.07;4.88;;;;;;;9.62;100.00;97471.44;6013072;23;20031;-74
2023/11/04 08:59:34;;;;;;;3.70;3.60;;;;;;;9.54;100.00;97427.75;6015797;23;20807;-76
2023/11/04 09:02:00;;;;;;;4.10;3.90;;;;;;;9.76;100.00;97407.22;5992296;23;20025;-76
2023/11/04 09:04:27;;;;;;;4.35;4.15;;;;;;;9.66;100.00;97359.38;6011634;23;20565;-75
2023/11/04 09:06:55;;;;;;;4.03;3.85;;;;;;;9.58;100.00;97350.53;6014938;23;20031;-73
2023/11/04 09:09:22;;;;;;;4.05;3.85;;;;;;;9.65;100.00;97350.72;5995057;23;21389;-75
2023/11/04 09:11:49;;;;;;;4.00;3.80;;;;;;;9.67;100.00;97369.72;5991781;23;20035;-74
2023/11/04 09:14:16;;;;;;;4.30;4.10;;;;;;;9.77;100.00;97398.41;6017185;23;20087;-74
2023/11/04 09:16:42;;;;;;;4.40;4.15;;;;;;;9.33;100.00;97309.50;6015439;23;20105;-74
2023/11/04 09:19:09;;;;;;;5.10;4.90;;;;;;;9.76;100.00;97392.34;6008121;23;20423;-75
2023/11/04 09:21:36;;;;;;;4.75;4.30;;;;;;;9.74;100.00;97390.84;5988642;23;20027;-74
2023/11/04 09:24:03;;;;;;;4.30;4.10;;;;;;;9.43;100.00;97320.69;6014829;23;20034;-74
2023/11/04 09:26:30;;;;;;;3.72;3.63;;;;;;;9.73;100.00;97365.66;5989577;23;20049;-74
2023/11/04 09:28:56;;;;;;;4.93;4.72;;;;;;;9.85;100.00;97363.59;6007899;23;20883;-74
2023/11/04 09:31:23;;;;;;;4.10;3.90;;;;;;;9.03;100.00;97251.47;5996673;23;20046;-74
2023/11/04 09:33:51;;;;;;;5.65;3.90;;;;;;;9.83;100.00;97376.00;6012481;23;20015;-75
2023/11/04 09:36:19;;;;;;;4.03;3.83;;;;;;;9.64;100.00;97346.47;5995049;23;20042;-75
2023/11/04 09:38:46;;;;;;;4.18;3.97;;;;;;;9.98;100.00;97356.06;6019029;23;20046;-76
2023/11/04 09:41:13;;;;;;;4.00;3.80;;;;;;;9.36;100.00;97217.59;6017642;23;20107;-75
2023/11/04 09:43:40;;;;;;;4.47;4.18;;;;;;;10.51;100.00;97346.25;6018907;23;20038;-74
2023/11/04 09:46:07;;;;;;;3.92;3.80;;;;;;;10.56;100.00;97262.69;5989396;23;20031;-74
2023/11/04 09:48:37;;;;;;;4.00;3.80;;;;;;;10.59;100.00;97202.06;6019632;23;20030;-75
2023/11/04 09:51:14;;;;;;;5.22;4.97;;;;;;;10.88;100.00;97153.47;5971109;23;20031;-70
2023/11/04 09:53:53;;;;;;;4.03;3.83;;;;;;;10.96;100.00;97172.63;6025580;23;20026;-76
2023/11/04 09:56:22;;;;;;;4.28;4.07;;;;;;;11.04;100.00;97127.16;5991987;23;20027;-75
2023/11/04 09:58:50;;;;;;;4.50;4.10;;;;;;;11.15;97.24;97076.91;5994344;23;20022;-75
2023/11/04 10:01:20;;;;;;;4.32;4.13;;;;;;;10.94;96.25;97018.97;5972901;23;20738;-74
2023/11/04 10:03:47;;;;;;;4.10;3.90;;;;;;;11.28;94.08;97012.53;6020176;23;20101;-75
2023/11/04 10:06:15;;;;;;;5.40;5.10;;;;;;;11.38;91.96;96984.25;6015701;23;20023;-76
2023/11/04 10:08:43;;;;;;;8.43;4.00;;;;;;;10.96;90.69;96884.06;5976592;23;20097;-70
2023/11/04 10:11:10;;;;;;;4.72;4.53;;;;;;;11.22;91.05;96942.38;6010175;23;20019;-71
2023/11/04 10:13:37;;;;;;;4.25;4.05;;;;;;;10.63;90.64;96840.72;6021275;23;20014;-72
2023/11/04 10:16:04;;;;;;;6.57;4.10;;;;;;;10.69;89.85;96853.91;6015463;23;20027;-71
2023/11/04 10:18:32;;;;;;;4.68;4.35;;;;;;;10.48;90.49;96856.34;5991012;23;20045;-72
2023/11/04 10:21:01;;;;;;;5.15;4.95;;;;;;;10.43;90.20;96835.09;6017070;23;20042;-71
2023/11/04 10:23:29;;;;;;;4.25;4.05;;;;;;;10.25;89.61;96817.00;6020384;23;20015;-71
2023/11/04 10:26:03;;;;;;;4.20;4.00;;;;;;;10.54;90.25;96866.16;5998580;23;20043;-71
2023/11/04 10:28:31;;;;;;;4.25;4.05;;;;;;;10.64;88.97;96835.25;5987481;23;20011;-72
2023/11/04 10:31:04;;;;;;;4.90;4.70;;;;;;;10.71;88.77;96840.63;6001638;23;20084;-72
2023/11/04 10:33:35;;;;;;;4.18;3.97;;;;;;;10.90;88.71;96876.03;5995959;23;20025;-71
2023/11/04 10:36:04;;;;;;;4.20;4.00;;;;;;;10.78;88.15;96828.44;6019973;23;20036;-70
2023/11/04 10:38:35;;;;;;;12.80;12.10;;;;;;;10.88;88.07;96863.09;5951233;23;20070;-70
2023/11/04 10:41:06;;;;;;;7.00;4.88;;;;;;;10.90;87.70;96857.69;5980076;23;20101;-71
2023/11/04 10:43:44;;;;;;;4.13;3.92;;;;;;;10.85;85.96;96794.47;6026056;23;20019;-74
2023/11/04 10:46:17;;;;;;;4.43;4.20;;;;;;;10.76;86.88;96830.41;6024384;23;20107;-74
2023/11/04 10:48:50;;;;;;;4.10;3.80;;;;;;;10.72;86.89;96814.25;6023967;23;20089;-74
2023/11/04 10:51:28;;;;;;;3.90;3.70;;;;;;;10.35;86.89;96781.75;6015300;23;20586;-74
2023/11/04 10:54:13;;;;;;;4.10;3.90;;;;;;;10.73;88.04;96857.00;6023212;23;20053;-73
2023/11/04 10:56:46;;;;;;;4.20;4.00;;;;;;;10.43;87.03;96786.13;6025071;23;20111;-75
2023/11/04 10:59:37;;;;;;;9.02;4.50;;;;;;;10.72;87.37;96831.78;5987112;23;20019;-75
2023/11/04 11:02:05;;;;;;;4.45;4.25;;;;;;;10.72;86.48;96793.28;6019610;23;20027;-75
2023/11/04 11:04:34;;;;;;;4.30;4.10;;;;;;;10.51;86.63;96772.13;5971781;23;20446;-72
2023/11/04 11:07:01;;;;;;;5.50;5.20;;;;;;;9.97;87.81;96726.63;6022722;23;20064;-74
2023/11/04 11:09:28;;;;;;;4.20;4.00;;;;;;;10.08;88.84;96783.06;5988369;23;20047;-75
2023/11/04 11:12:24;;;;;;;3.95;3.78;;;;;;;10.28;90.90;96866.44;6022347;23;20082;-73
2023/11/04 11:14:53;;;;;;;4.25;4.05;;;;;;;10.29;93.08;96939.66;6001564;23;20046;-75
2023/11/04 11:17:29;;;;;;;4.20;4.00;;;;;;;10.09;96.37;96972.50;5992011;23;20035;-75
2023/11/04 11:19:57;;;;;;;3.90;3.70;;;;;;;10.14;99.46;97039.13;6021727;23;20023;-74
2023/11/04 11:22:26;;;;;;;4.30;4.10;;;;;;;9.91;100.00;97069.59;6024811;23;20030;-75
2023/11/04 11:24:57;;;;;;;4.47;4.28;;;;;;;9.82;100.00;97105.44;6022387;23;20043;-75
2023/11/04 11:27:25;;;;;;;4.18;3.97;;;;;;;9.58;100.00;97112.31;5993172;23;20307;-74
2023/11/04 11:29:53;;;;;;;4.03;3.83;;;;;;;9.81;100.00;97198.09;5996163;23;20023;-75
2023/11/04 11:32:20;;;;;;;8.13;4.85;;;;;;;9.72;100.00;97199.88;5999773;23;20078;-75
2023/11/04 11:34:52;;;;;;;4.40;4.20;;;;;;;9.67;100.00;97201.34;5985849;23;20598;-74
2023/11/04 11:37:20;;;;;;;4.22;4.03;;;;;;;9.42;100.00;97161.19;6022172;23;20041;-75